Date,TemperatureHighF,TemperatureAvgF,TemperatureLowF,DewpointHighF,DewpointAvgF,DewpointLowF,HumidityHigh,HumidityAvg,HumidityLow,PressureMaxIn,PressureMinIn,WindSpeedMaxMPH,WindSpeedAvgMPH,GustSpeedMaxMPH,PrecipitationSumIn
2013-1-10,35,24,15,8,4,1,70,44,24,30.26,29.90,4,0,0,0.00
2013-1-11,16,7,-5,11,-2,-16,84,68,53,30.11,29.51,6,1,0,0.00
2013-1-12,6,-6,-16,-14,-19,-23,72,55,33,30.50,30.12,5,0,0,0.00
2013-1-13,1,-9,-21,-10,-19,-28,75,62,44,30.66,30.49,3,0,0,0.00
2013-1-14,4,-10,-24,-9,-20,-31,77,61,47,30.82,30.65,3,0,0,0.00
2013-1-15,11,2,-10,4,-9,-23,72,60,45,30.84,30.58,9,1,0,0.00
2013-1-16,34,19,7,15,9,2,80,66,46,30.83,30.60,2,0,0,0.00
2013-1-17,34,18,3,13,4,-3,87,59,30,30.82,30.66,5,0,0,0.00
2013-1-18,34,25,18,3,-2,-5,39,31,23,30.66,30.35,8,2,0,0.00
2013-1-19,39,27,20,5,-2,-10,38,29,15,30.50,30.36,4,1,0,0.00
2013-1-20,35,27,21,4,-3,-13,44,27,18,30.39,30.27,8,1,0,0.00
2013-1-21,34,27,21,9,1,-12,47,34,19,30.39,30.29,7,1,0,0.00
2013-1-22,41,31,24,0,-8,-14,24,18,14,30.41,30.32,7,2,0,0.00
2013-1-23,48,35,23,4,-5,-15,39,19,12,30.41,30.27,5,1,0,0.00
2013-1-24,39,32,23,21,11,-7,69,45,19,30.27,30.03,10,3,0,0.00
2013-1-25,38,31,24,23,20,17,76,65,53,30.28,30.17,5,1,0,0.00
2013-1-26,36,28,23,26,19,9,90,70,47,30.16,29.83,3,0,0,0.00
2013-1-27,37,27,18,24,16,8,90,66,42,29.93,29.79,6,1,0,0.00
2013-1-28,30,19,10,21,11,-1,86,70,52,29.88,29.70,5,0,0,0.00
2013-1-29,10,3,-2,2,-8,-13,78,60,41,30.35,29.79,6,1,0,0.00
2013-1-30,13,7,-2,8,0,-13,83,73,57,30.50,30.31,9,2,0,0.00
2013-1-31,23,17,13,11,8,5,82,70,57,30.58,30.43,6,2,0,0.00